Time;durP1;ratioP1;P1;durP2;ratioP2;P2;SDS_P1;SDS_P2;PMS_P1;PMS_P2;Temp;Humidity;BMP_temperature;BMP_pressure;BME280_temperature;BME280_humidity;BME280_pressure;Samples;Min_cycle;Max_cycle;Signal;HPM_P1;HPM_P2
2021/09/15 00:02:10;;;;;;;4.50;3.00;;;27.60;58.20;;;;;;5185664;27;20454;-43
2021/09/15 00:04:41;;;;;;;3.57;3.17;;;27.60;58.10;;;;;;5185318;27;20478;-44
2021/09/15 00:07:12;;;;;;;3.23;3.03;;;27.60;57.30;;;;;;5186463;27;20442;-43
2021/09/15 00:09:45;;;;;;;3.23;2.83;;;27.60;57.40;;;;;;5186789;27;20498;-43
2021/09/15 00:12:16;;;;;;;3.20;2.90;;;27.40;58.40;;;;;;5185498;27;20481;-43
2021/09/15 00:14:47;;;;;;;3.50;3.00;;;27.30;58.90;;;;;;5185937;27;20472;-43
2021/09/15 00:17:18;;;;;;;3.50;3.20;;;27.30;59.50;;;;;;5185054;27;20557;-43
2021/09/15 00:19:49;;;;;;;2.73;2.53;;;27.30;59.60;;;;;;5186087;27;20493;-44
2021/09/15 00:22:20;;;;;;;2.83;2.57;;;27.20;57.70;;;;;;5186025;27;20468;-44
2021/09/15 00:24:52;;;;;;;4.73;3.63;;;27.10;59.80;;;;;;5173410;27;20453;-44
2021/09/15 00:27:23;;;;;;;3.80;3.17;;;27.10;58.90;;;;;;5185549;27;20556;-44
2021/09/15 00:29:54;;;;;;;4.30;3.20;;;27.00;59.10;;;;;;5184759;27;20472;-43
2021/09/15 00:32:26;;;;;;;3.50;2.93;;;27.10;59.00;;;;;;5185158;27;20513;-43
2021/09/15 00:34:57;;;;;;;3.27;2.90;;;27.10;58.60;;;;;;5185642;27;20571;-43
2021/09/15 00:37:28;;;;;;;5.50;3.50;;;27.10;59.60;;;;;;5181260;27;21195;-43
2021/09/15 00:40:01;;;;;;;6.40;5.60;;;27.10;58.80;;;;;;5186295;27;20539;-43
2021/09/15 00:42:32;;;;;;;4.47;4.07;;;27.00;60.80;;;;;;5184456;27;20453;-43
2021/09/15 00:45:06;;;;;;;3.37;2.93;;;26.90;60.60;;;;;;5185467;27;20488;-43
2021/09/15 00:47:37;;;;;;;8.30;5.87;;;26.80;60.20;;;;;;5177710;27;20448;-43
2021/09/15 00:50:09;;;;;;;4.37;3.93;;;26.60;59.90;;;;;;5184392;27;20448;-43
2021/09/15 00:52:40;;;;;;;3.70;2.47;;;26.50;60.90;;;;;;5185609;27;20524;-42
2021/09/15 00:55:13;;;;;;;3.63;2.90;;;26.50;61.20;;;;;;5185690;27;20452;-43
2021/09/15 00:57:44;;;;;;;3.40;2.80;;;26.40;61.60;;;;;;5184704;27;20473;-43
2021/09/15 01:00:16;;;;;;;3.70;3.40;;;26.30;61.70;;;;;;5185505;27;20449;-43
2021/09/15 01:02:47;;;;;;;3.10;2.40;;;26.20;62.20;;;;;;5184128;27;20519;-43
2021/09/15 01:05:18;;;;;;;3.20;2.93;;;26.30;61.50;;;;;;5184762;27;20452;-42
2021/09/15 01:07:49;;;;;;;2.43;2.27;;;26.20;62.30;;;;;;5178956;27;20467;-42
2021/09/15 01:10:24;;;;;;;6.37;2.60;;;26.00;64.30;;;;;;5183435;27;20431;-42
2021/09/15 01:12:55;;;;;;;3.57;3.27;;;25.90;65.60;;;;;;5182369;27;20477;-42
2021/09/15 01:15:26;;;;;;;3.57;3.27;;;25.70;66.80;;;;;;5184956;27;20467;-42
2021/09/15 01:17:57;;;;;;;2.77;2.57;;;25.60;67.30;;;;;;5181299;27;20708;-42
2021/09/15 01:20:28;;;;;;;3.70;2.93;;;25.60;67.20;;;;;;5184386;27;20444;-43
2021/09/15 01:23:01;;;;;;;3.50;2.80;;;25.60;67.40;;;;;;5184810;27;20439;-42
2021/09/15 01:25:32;;;;;;;3.70;2.90;;;25.60;68.10;;;;;;5185435;27;20438;-42
2021/09/15 01:28:03;;;;;;;5.53;3.80;;;25.50;68.50;;;;;;5178887;27;20973;-44
2021/09/15 01:30:34;;;;;;;3.40;3.07;;;25.40;69.40;;;;;;5185139;27;20466;-42
2021/09/15 01:33:05;;;;;;;5.33;4.83;;;25.40;69.90;;;;;;5184042;27;20503;-42
2021/09/15 01:35:36;;;;;;;5.20;4.77;;;25.30;71.20;;;;;;5184456;27;20455;-43
2021/09/15 01:38:08;;;;;;;5.73;4.33;;;25.20;71.70;;;;;;5184211;27;20752;-43
2021/09/15 01:40:40;;;;;;;3.40;3.20;;;25.10;72.10;;;;;;5184639;27;20443;-43
2021/09/15 01:43:11;;;;;;;3.63;3.13;;;25.00;71.70;;;;;;5183667;27;20539;-43
2021/09/15 01:45:43;;;;;;;3.73;3.43;;;24.90;71.80;;;;;;5184198;27;20498;-43
2021/09/15 01:48:14;;;;;;;4.03;3.63;;;24.90;71.60;;;;;;5183341;27;20502;-43
2021/09/15 01:50:45;;;;;;;3.77;3.43;;;24.80;72.40;;;;;;5184871;27;20475;-43
2021/09/15 01:53:18;;;;;;;4.37;3.97;;;24.70;72.90;;;;;;5184269;27;20463;-43
2021/09/15 01:55:49;;;;;;;5.90;3.87;;;24.70;73.40;;;;;;5185108;27;20435;-43
2021/09/15 01:58:20;;;;;;;6.53;4.37;;;24.70;73.50;;;;;;5184012;27;20451;-42
2021/09/15 02:00:51;;;;;;;4.07;2.90;;;24.70;74.40;;;;;;5185098;27;20584;-43
2021/09/15 02:03:22;;;;;;;2.63;2.43;;;24.70;74.70;;;;;;5183415;27;20451;-42
2021/09/15 02:05:53;;;;;;;4.90;4.50;;;24.60;75.20;;;;;;5183804;27;20495;-43
2021/09/15 02:08:25;;;;;;;3.00;2.80;;;24.50;76.40;;;;;;5184542;27;20457;-43
2021/09/15 02:10:56;;;;;;;3.13;2.70;;;24.30;77.00;;;;;;5184338;27;20451;-42
2021/09/15 02:13:27;;;;;;;6.17;5.57;;;24.20;77.80;;;;;;5183504;27;20479;-43
2021/09/15 02:16:01;;;;;;;13.30;12.00;;;24.10;78.60;;;;;;5178880;27;20454;-44
2021/09/15 02:18:32;;;;;;;8.00;7.27;;;24.00;79.60;;;;;;5183331;27;20468;-43
2021/09/15 02:21:03;;;;;;;6.57;5.97;;;23.80;80.40;;;;;;5184187;27;20491;-43
2021/09/15 02:23:35;;;;;;;5.87;5.27;;;23.70;81.70;;;;;;5183704;27;20446;-43
2021/09/15 02:26:06;;;;;;;6.13;5.53;;;23.60;82.70;;;;;;5184134;27;20466;-43
2021/09/15 02:28:37;;;;;;;3.43;2.90;;;23.50;83.40;;;;;;5183790;27;20458;-43
2021/09/15 02:31:08;;;;;;;2.63;2.43;;;23.40;83.70;;;;;;5183834;27;21162;-43
2021/09/15 02:33:39;;;;;;;5.23;2.20;;;23.30;85.20;;;;;;5181674;27;20474;-43
2021/09/15 02:36:10;;;;;;;1.93;1.73;;;23.10;86.50;;;;;;5183688;27;20444;-43
2021/09/15 02:38:43;;;;;;;3.20;2.47;;;23.00;87.30;;;;;;5185273;27;20439;-43
2021/09/15 02:41:14;;;;;;;2.10;1.90;;;23.00;87.80;;;;;;5184454;27;20529;-43
2021/09/15 02:43:45;;;;;;;2.03;1.83;;;22.90;89.10;;;;;;5183257;27;20894;-45
2021/09/15 02:46:17;;;;;;;2.80;1.63;;;22.80;89.60;;;;;;5183268;27;20482;-44
2021/09/15 02:48:48;;;;;;;1.90;1.80;;;22.70;90.10;;;;;;5183405;27;20447;-44
2021/09/15 02:51:19;;;;;;;3.27;2.17;;;22.70;90.50;;;;;;5182998;27;20438;-42
2021/09/15 02:53:51;;;;;;;2.53;1.70;;;22.60;91.00;;;;;;5185010;27;20506;-43
2021/09/15 02:56:22;;;;;;;2.70;1.60;;;22.50;91.10;;;;;;5187704;27;20422;-44
2021/09/15 02:58:53;;;;;;;3.23;1.70;;;22.40;91.30;;;;;;5186844;27;20806;-44
2021/09/15 03:01:24;;;;;;;2.00;1.70;;;22.30;91.70;;;;;;5182920;27;20451;-44
2021/09/15 03:03:55;;;;;;;3.20;1.80;;;22.20;91.90;;;;;;5175814;27;20430;-44
2021/09/15 03:06:26;;;;;;;2.20;1.90;;;22.10;92.40;;;;;;5188561;27;20499;-44
2021/09/15 03:08:59;;;;;;;2.93;1.53;;;22.10;92.50;;;;;;5187819;27;20730;-44
2021/09/15 03:11:47;;;;;;;1.97;1.60;;;22.00;93.00;;;;;;5185360;27;20438;-44
2021/09/15 03:14:19;;;;;;;1.70;1.57;;;21.90;93.40;;;;;;5186738;27;20454;-44
2021/09/15 03:16:49;;;;;;;1.90;1.47;;;21.80;93.70;;;;;;5187570;27;20443;-44
2021/09/15 03:19:20;;;;;;;1.90;1.80;;;21.70;94.00;;;;;;5187998;27;20475;-43
2021/09/15 03:21:51;;;;;;;2.53;1.67;;;21.80;94.20;;;;;;5186622;27;20436;-44
2021/09/15 03:24:24;;;;;;;1.40;1.30;;;21.70;94.50;;;;;;5187935;27;20443;-44
2021/09/15 03:26:55;;;;;;;1.83;1.40;;;21.70;94.90;;;;;;5186889;27;20478;-44
2021/09/15 03:29:26;;;;;;;2.47;1.20;;;21.60;95.30;;;;;;5187861;27;20447;-44
2021/09/15 03:31:57;;;;;;;1.40;1.27;;;21.60;95.90;;;;;;5187206;27;20765;-45
2021/09/15 03:34:28;;;;;;;1.60;1.47;;;21.60;96.50;;;;;;5187200;27;20443;-44
2021/09/15 03:36:59;;;;;;;1.40;1.30;;;21.60;97.10;;;;;;5187696;27;20433;-44
2021/09/15 03:39:32;;;;;;;1.40;1.30;;;21.70;97.50;;;;;;5188286;27;20467;-44
2021/09/15 03:42:03;;;;;;;1.70;1.30;;;21.70;98.10;;;;;;5186562;27;20484;-45
2021/09/15 03:44:34;;;;;;;4.50;1.50;;;21.70;98.50;;;;;;5186703;27;20478;-44
2021/09/15 03:47:06;;;;;;;1.30;1.20;;;21.80;98.90;;;;;;5186123;27;20422;-44
2021/09/15 03:49:37;;;;;;;1.70;1.23;;;21.80;99.20;;;;;;5186999;27;20466;-44
2021/09/15 03:52:08;;;;;;;2.20;1.50;;;21.70;99.70;;;;;;5187418;27;20428;-45
2021/09/15 03:54:41;;;;;;;3.03;1.40;;;21.70;99.90;;;;;;5187475;27;20495;-44
2021/09/15 03:57:12;;;;;;;1.40;0.83;;;21.70;99.90;;;;;;5186750;27;20552;-45
2021/09/15 03:59:43;;;;;;;2.23;0.80;;;21.60;99.90;;;;;;5187478;27;20468;-44
2021/09/15 04:02:14;;;;;;;1.37;1.27;;;21.60;99.90;;;;;;5185706;27;20431;-44
2021/09/15 04:04:47;;;;;;;1.43;1.33;;;21.60;99.90;;;;;;5185826;27;20466;-44
2021/09/15 04:07:18;;;;;;;1.97;1.30;;;21.60;99.90;;;;;;5187071;27;20458;-44
2021/09/15 04:09:51;;;;;;;1.00;0.90;;;21.50;99.90;;;;;;5187223;27;20467;-44
2021/09/15 04:12:22;;;;;;;0.80;0.80;;;21.50;99.90;;;;;;5186454;27;20531;-44
2021/09/15 04:14:53;;;;;;;1.40;0.93;;;21.50;99.90;;;;;;5186952;27;20473;-45
2021/09/15 04:17:24;;;;;;;1.73;1.03;;;21.50;99.90;;;;;;5186213;27;20467;-44
2021/09/15 04:19:55;;;;;;;1.53;1.30;;;21.40;99.90;;;;;;5186824;27;20506;-44
2021/09/15 04:22:26;;;;;;;1.10;1.00;;;21.30;99.90;;;;;;5186299;27;20466;-44
2021/09/15 04:33:18;;;;;;;1.10;1.00;;;21.30;99.90;;;;;;5185057;27;20534;-44
2021/09/15 04:35:48;;;;;;;1.90;0.87;;;21.40;99.90;;;;;;5179610;27;20562;-44
2021/09/15 04:38:19;;;;;;;1.00;0.90;;;21.40;99.90;;;;;;5185139;27;20443;-44
2021/09/15 04:40:52;;;;;;;1.40;1.20;;;21.30;99.90;;;;;;5185067;27;20470;-44
2021/09/15 04:43:23;;;;;;;1.00;1.00;;;21.30;99.90;;;;;;5184269;27;20499;-44
2021/09/15 04:48:42;;;;;;;1.27;1.07;;;21.10;99.90;;;;;;5184947;27;20440;-44
2021/09/15 04:51:14;;;;;;;1.97;1.20;;;21.10;99.90;;;;;;5185311;27;20443;-44
2021/09/15 04:53:45;;;;;;;1.20;1.10;;;21.00;99.90;;;;;;5184598;27;20774;-45
2021/09/15 04:56:17;;;;;;;1.40;1.30;;;20.90;99.90;;;;;;5185488;27;20537;-44
2021/09/15 04:58:48;;;;;;;1.47;1.37;;;20.80;99.90;;;;;;5185920;27;20433;-44
2021/09/15 05:01:19;;;;;;;1.47;1.17;;;20.80;99.90;;;;;;5185949;27;20447;-43
2021/09/15 05:03:51;;;;;;;1.17;1.07;;;20.80;99.90;;;;;;5183853;27;20482;-44
2021/09/15 05:06:22;;;;;;;2.73;1.33;;;20.60;99.90;;;;;;5183287;27;20743;-44
2021/09/15 05:08:53;;;;;;;1.23;1.13;;;20.50;99.90;;;;;;5184815;27;20443;-45
2021/09/15 05:11:25;;;;;;;2.23;1.00;;;20.40;99.90;;;;;;5184965;27;20532;-44
2021/09/15 05:13:56;;;;;;;2.00;1.30;;;20.30;99.90;;;;;;5184974;27;20505;-44
2021/09/15 05:16:27;;;;;;;1.47;1.37;;;20.20;99.90;;;;;;5184967;27;20449;-44
2021/09/15 05:18:58;;;;;;;3.33;1.23;;;20.10;99.90;;;;;;5184596;27;20443;-44
2021/09/15 05:21:29;;;;;;;1.60;1.43;;;20.10;99.90;;;;;;5185215;27;20530;-44
2021/09/15 05:24:01;;;;;;;1.40;1.13;;;20.00;99.90;;;;;;5165796;27;20443;-45
2021/09/15 05:26:34;;;;;;;1.80;1.40;;;19.90;99.90;;;;;;5184968;27;20501;-44
2021/09/15 05:29:05;;;;;;;1.37;1.27;;;19.80;99.90;;;;;;5185035;27;20414;-44
2021/09/15 05:31:36;;;;;;;1.53;1.20;;;19.80;99.90;;;;;;5165854;27;20466;-44
2021/09/15 05:34:12;;;;;;;1.30;1.00;;;19.80;99.90;;;;;;5182517;27;20517;-44
2021/09/15 05:36:43;;;;;;;1.47;1.20;;;19.70;99.90;;;;;;5185031;27;20443;-44
2021/09/15 05:39:14;;;;;;;2.90;1.50;;;19.60;99.90;;;;;;5184202;27;20474;-44
2021/09/15 05:41:47;;;;;;;1.53;1.10;;;19.60;99.90;;;;;;5175266;27;20465;-43
2021/09/15 05:44:18;;;;;;;1.87;1.13;;;19.60;99.90;;;;;;5185262;27;20413;-44
2021/09/15 05:46:49;;;;;;;1.80;1.20;;;19.60;99.90;;;;;;5184210;27;20470;-44
2021/09/15 05:49:38;;;;;;;1.43;1.33;;;19.50;99.90;;;;;;5185015;27;20505;-44
2021/09/15 05:52:09;;;;;;;5.10;1.70;;;19.50;99.90;;;;;;5184234;27;20428;-44
2021/09/15 05:54:40;;;;;;;1.80;1.37;;;19.50;99.90;;;;;;5183942;27;20468;-45
2021/09/15 05:57:12;;;;;;;3.50;1.50;;;19.50;99.90;;;;;;5183488;27;20449;-45
2021/09/15 05:59:43;;;;;;;3.33;2.23;;;19.40;99.90;;;;;;5185392;27;20462;-44
2021/09/15 06:02:14;;;;;;;1.93;1.20;;;19.30;99.90;;;;;;5184620;27;20421;-43
2021/09/15 06:04:45;;;;;;;2.40;1.47;;;19.40;99.90;;;;;;5183160;27;20421;-44
2021/09/15 06:07:16;;;;;;;1.40;1.30;;;19.30;99.90;;;;;;5184498;27;20446;-43
2021/09/15 06:09:47;;;;;;;1.30;1.20;;;19.30;99.90;;;;;;5184961;27;20458;-43
2021/09/15 06:12:20;;;;;;;1.50;1.40;;;19.30;99.90;;;;;;5183871;27;20452;-43
2021/09/15 06:14:51;;;;;;;1.63;1.27;;;19.20;99.90;;;;;;5185236;27;20525;-43
2021/09/15 06:17:22;;;;;;;2.33;1.60;;;19.10;99.90;;;;;;5184071;27;20524;-43
2021/09/15 06:19:53;;;;;;;1.63;1.53;;;19.10;99.90;;;;;;5184854;27;20454;-43
2021/09/15 06:22:24;;;;;;;1.70;1.60;;;19.10;99.90;;;;;;5184758;27;20429;-43
2021/09/15 06:24:55;;;;;;;1.63;1.50;;;19.00;99.90;;;;;;5183768;27;20531;-43
2021/09/15 06:27:27;;;;;;;1.60;1.50;;;19.00;99.90;;;;;;5184365;27;20432;-44
2021/09/15 06:29:58;;;;;;;3.23;1.80;;;19.00;99.90;;;;;;5189858;27;20924;-43
2021/09/15 06:32:29;;;;;;;1.93;1.77;;;18.90;99.90;;;;;;5188648;27;20523;-43
2021/09/15 06:35:01;;;;;;;3.00;1.50;;;18.90;99.90;;;;;;5187267;27;20483;-44
2021/09/15 06:37:32;;;;;;;3.00;1.83;;;18.80;99.90;;;;;;5188811;27;20499;-43
2021/09/15 06:40:04;;;;;;;1.70;1.60;;;18.80;99.90;;;;;;5188856;27;20447;-44
2021/09/15 06:42:36;;;;;;;1.70;1.50;;;18.80;99.90;;;;;;5187955;27;20462;-44
2021/09/15 06:45:09;;;;;;;2.60;1.77;;;18.80;99.90;;;;;;5189260;27;20492;-44
2021/09/15 06:47:45;;;;;;;1.67;1.57;;;18.80;99.90;;;;;;5187147;27;20872;-44
2021/09/15 06:50:17;;;;;;;2.10;1.90;;;18.80;99.90;;;;;;5188034;27;20481;-43
2021/09/15 06:52:48;;;;;;;1.77;1.67;;;18.90;99.90;;;;;;5187759;27;20452;-43
2021/09/15 06:55:19;;;;;;;3.40;1.80;;;18.80;99.90;;;;;;5187782;27;20502;-43
2021/09/15 06:57:51;;;;;;;2.67;1.60;;;18.80;99.90;;;;;;5187750;27;20425;-46
2021/09/15 07:00:22;;;;;;;1.93;1.80;;;18.90;99.90;;;;;;5188734;27;20526;-44
2021/09/15 07:02:55;;;;;;;2.10;1.90;;;18.90;99.90;;;;;;5188454;27;20456;-44
2021/09/15 07:05:26;;;;;;;1.67;1.57;;;19.00;99.90;;;;;;5184677;27;20450;-43
2021/09/15 07:07:57;;;;;;;2.07;1.97;;;18.90;99.90;;;;;;5187604;27;20426;-43
2021/09/15 07:10:28;;;;;;;2.90;2.60;;;19.00;99.90;;;;;;5188564;27;20418;-43
2021/09/15 07:13:01;;;;;;;2.67;1.80;;;19.00;99.90;;;;;;5187382;27;20478;-43
2021/09/15 07:15:32;;;;;;;2.60;1.90;;;19.00;99.90;;;;;;5188447;27;20494;-43
2021/09/15 07:18:03;;;;;;;2.00;1.90;;;19.00;99.90;;;;;;5187567;27;20480;-43
2021/09/15 07:20:34;;;;;;;2.30;2.10;;;19.00;99.90;;;;;;5188297;27;20558;-44
2021/09/15 07:23:05;;;;;;;2.93;2.30;;;19.00;99.90;;;;;;5187214;27;20471;-43
2021/09/15 07:25:36;;;;;;;2.13;1.93;;;19.00;99.90;;;;;;5187004;27;20498;-44
2021/09/15 07:28:09;;;;;;;1.80;1.70;;;19.00;99.90;;;;;;5187058;27;20432;-44
2021/09/15 07:30:40;;;;;;;3.57;1.80;;;19.00;99.90;;;;;;5188645;27;20421;-43
2021/09/15 07:33:10;;;;;;;2.10;1.90;;;19.00;99.90;;;;;;5186915;27;20433;-44
2021/09/15 07:35:41;;;;;;;3.00;1.77;;;19.00;99.90;;;;;;5182578;27;20479;-43
2021/09/15 07:38:12;;;;;;;2.00;1.90;;;19.00;99.90;;;;;;5187117;27;20501;-43
2021/09/15 07:40:43;;;;;;;2.30;2.10;;;18.80;99.90;;;;;;5187033;27;20510;-42
2021/09/15 07:43:16;;;;;;;2.13;1.70;;;18.80;99.90;;;;;;5187137;27;20830;-43
2021/09/15 07:46:06;;;;;;;1.87;1.60;;;18.80;99.90;;;;;;5187429;27;20490;-43
2021/09/15 07:48:37;;;;;;;2.40;2.20;;;18.80;99.90;;;;;;5170229;27;20434;-43
2021/09/15 07:51:08;;;;;;;2.10;1.97;;;18.90;99.90;;;;;;5187725;27;20472;-43
2021/09/15 07:53:39;;;;;;;1.67;1.57;;;18.90;99.90;;;;;;5187082;27;20462;-44
2021/09/15 07:56:10;;;;;;;2.23;1.70;;;18.90;99.90;;;;;;5186448;27;20457;-44
2021/09/15 07:58:42;;;;;;;2.17;1.80;;;18.90;99.90;;;;;;5185999;27;20450;-43
2021/09/15 08:01:13;;;;;;;3.73;2.10;;;18.90;99.90;;;;;;5177338;27;20445;-45
2021/09/15 08:03:44;;;;;;;1.93;1.50;;;18.90;99.90;;;;;;5186876;27;20478;-44
2021/09/15 08:06:18;;;;;;;4.17;2.20;;;18.90;99.90;;;;;;5186643;27;20519;-43
2021/09/15 08:08:49;;;;;;;2.90;2.33;;;19.00;99.90;;;;;;5187156;27;20580;-44
2021/09/15 08:11:20;;;;;;;2.00;1.80;;;19.00;99.90;;;;;;5186877;27;20430;-44
2021/09/15 08:13:53;;;;;;;2.53;1.93;;;19.00;99.90;;;;;;5186235;27;20429;-44
2021/09/15 08:16:24;;;;;;;3.40;1.73;;;19.00;99.90;;;;;;5186606;27;20494;-43
2021/09/15 08:18:56;;;;;;;2.83;1.53;;;19.00;99.90;;;;;;5182445;27;20489;-43
2021/09/15 08:21:42;;;;;;;2.33;1.93;;;19.00;99.90;;;;;;5186365;27;20471;-43
2021/09/15 08:24:13;;;;;;;1.60;1.50;;;19.00;99.90;;;;;;5186290;27;20458;-43
2021/09/15 08:26:44;;;;;;;2.13;1.50;;;19.00;99.90;;;;;;5185251;27;20455;-43
2021/09/15 08:29:17;;;;;;;2.90;2.00;;;19.00;99.90;;;;;;5186526;27;20435;-43
2021/09/15 08:31:48;;;;;;;2.33;1.70;;;19.00;99.90;;;;;;5186191;27;20429;-43
2021/09/15 08:34:19;;;;;;;4.60;1.67;;;19.00;99.90;;;;;;5186027;27;20443;-43
2021/09/15 08:36:50;;;;;;;2.43;1.70;;;19.10;99.90;;;;;;5171256;27;20475;-43
2021/09/15 08:39:21;;;;;;;1.87;1.77;;;19.10;99.90;;;;;;5171159;27;20474;-44
2021/09/15 08:41:53;;;;;;;2.47;1.57;;;19.10;99.90;;;;;;5185202;27;20447;-44
2021/09/15 08:44:25;;;;;;;1.60;1.50;;;19.10;99.90;;;;;;5186147;27;20421;-43
2021/09/15 08:47:03;;;;;;;1.97;1.87;;;19.10;99.90;;;;;;5185351;27;21009;-43
2021/09/15 08:49:34;;;;;;;2.30;1.70;;;19.20;99.90;;;;;;5186316;27;20428;-43
2021/09/15 08:52:05;;;;;;;2.37;1.90;;;19.10;99.90;;;;;;5167868;27;20458;-43
2021/09/15 08:54:36;;;;;;;3.30;1.87;;;19.00;99.90;;;;;;5185289;27;20413;-43
2021/09/15 08:57:07;;;;;;;2.50;1.90;;;19.00;99.90;;;;;;5185052;27;20468;-43
2021/09/15 08:59:40;;;;;;;4.03;1.90;;;19.00;99.90;;;;;;5185927;27;20414;-43
2021/09/15 09:02:13;;;;;;;1.73;1.63;;;19.00;99.90;;;;;;5183050;27;20511;-43
2021/09/15 09:04:56;;;;;;;2.10;1.77;;;19.00;99.90;;;;;;5183730;27;20467;-43
2021/09/15 09:07:30;;;;;;;2.27;1.87;;;19.00;99.90;;;;;;5184545;27;20477;-43
2021/09/15 09:10:05;;;;;;;2.03;1.70;;;19.00;99.90;;;;;;5174918;27;20427;-44
2021/09/15 09:12:37;;;;;;;1.60;1.50;;;18.90;99.90;;;;;;5185057;27;20474;-43
2021/09/15 09:15:22;;;;;;;1.53;1.43;;;18.90;99.90;;;;;;5185754;27;20454;-42
2021/09/15 09:17:53;;;;;;;1.63;1.53;;;19.00;99.90;;;;;;5183920;27;20447;-43
2021/09/15 09:20:29;;;;;;;1.40;1.30;;;18.90;99.90;;;;;;5185931;27;20410;-43
2021/09/15 09:23:08;;;;;;;1.97;1.60;;;18.80;99.90;;;;;;5184509;27;20617;-43
2021/09/15 09:25:42;;;;;;;1.77;1.67;;;18.70;99.90;;;;;;5184695;27;20423;-44
2021/09/15 09:28:23;;;;;;;1.90;1.27;;;18.70;99.90;;;;;;5168918;27;20455;-43
2021/09/15 09:30:57;;;;;;;2.80;1.63;;;18.70;99.90;;;;;;5185380;27;20473;-44
2021/09/15 09:33:28;;;;;;;1.63;1.33;;;18.70;99.90;;;;;;5184521;27;20443;-43
2021/09/15 09:36:01;;;;;;;1.70;1.30;;;18.70;99.90;;;;;;5182738;27;20874;-43
2021/09/15 09:38:35;;;;;;;1.30;1.20;;;18.70;99.90;;;;;;5185215;27;20463;-44
2021/09/15 09:41:12;;;;;;;1.47;1.10;;;18.70;99.90;;;;;;5184936;27;20465;-44
2021/09/15 09:43:47;;;;;;;2.77;1.20;;;18.70;99.90;;;;;;5184401;27;20449;-44
2021/09/15 09:46:21;;;;;;;1.20;0.90;;;18.70;99.90;;;;;;5185138;27;20473;-44
2021/09/15 09:48:54;;;;;;;0.83;0.83;;;18.70;99.90;;;;;;5184412;27;20450;-43
2021/09/15 09:51:30;;;;;;;0.80;0.80;;;18.70;99.90;;;;;;5185407;27;20504;-44
2021/09/15 09:54:20;;;;;;;0.97;0.90;;;18.60;99.90;;;;;;5184909;27;20442;-43
2021/09/15 09:56:53;;;;;;;1.53;0.70;;;18.70;99.90;;;;;;5183587;27;20492;-43
2021/09/15 09:59:26;;;;;;;0.70;0.60;;;18.70;99.90;;;;;;5184513;27;20421;-43
2021/09/15 10:01:59;;;;;;;0.70;0.60;;;18.70;99.90;;;;;;5185438;27;20443;-43
2021/09/15 10:04:32;;;;;;;0.90;0.60;;;18.70;99.90;;;;;;5189044;27;20451;-44
2021/09/15 10:07:04;;;;;;;1.40;0.63;;;18.50;99.90;;;;;;5189338;27;20443;-43
2021/09/15 10:09:37;;;;;;;1.20;0.67;;;18.60;99.90;;;;;;5188791;27;20470;-43
2021/09/15 10:12:10;;;;;;;1.10;0.70;;;18.50;99.90;;;;;;5188974;27;20449;-44
2021/09/15 10:14:41;;;;;;;0.60;0.40;;;18.50;99.90;;;;;;5188882;27;20439;-44
2021/09/15 10:17:16;;;;;;;0.80;0.80;;;18.50;99.90;;;;;;5188862;27;20593;-43
2021/09/15 10:19:53;;;;;;;1.30;0.47;;;18.40;99.90;;;;;;5189003;27;20929;-43
2021/09/15 10:22:31;;;;;;;0.60;0.60;;;18.40;99.90;;;;;;5187758;27;20463;-44
2021/09/15 10:25:04;;;;;;;0.60;0.50;;;18.30;99.90;;;;;;5189091;27;20551;-44
2021/09/15 10:28:02;;;;;;;0.67;0.67;;;18.30;99.90;;;;;;5188435;27;20843;-42
2021/09/15 10:30:48;;;;;;;0.60;0.60;;;18.30;99.90;;;;;;5188799;27;20446;-43
2021/09/15 10:33:48;;;;;;;1.80;0.50;;;18.30;99.90;;;;;;5188675;27;20435;-43
2021/09/15 10:36:41;;;;;;;0.40;0.30;;;18.40;99.90;;;;;;5187670;27;20466;-43
2021/09/15 10:39:22;;;;;;;0.47;0.40;;;18.40;99.90;;;;;;5188341;27;20857;-43
2021/09/15 10:41:54;;;;;;;0.40;0.37;;;18.40;99.90;;;;;;5188134;27;20442;-43
2021/09/15 10:44:27;;;;;;;0.40;0.37;;;18.50;99.90;;;;;;5189124;27;20421;-44
2021/09/15 10:47:17;;;;;;;0.50;0.40;;;18.40;99.90;;;;;;5188259;27;20775;-44
2021/09/15 10:49:50;;;;;;;0.30;0.30;;;18.40;99.90;;;;;;5173707;27;20475;-43
2021/09/15 10:52:40;;;;;;;0.40;0.30;;;18.40;99.90;;;;;;5187938;27;20455;-43
2021/09/15 10:55:20;;;;;;;0.40;0.40;;;18.40;99.90;;;;;;5188588;27;20441;-43
2021/09/15 10:57:51;;;;;;;0.50;0.43;;;18.30;99.90;;;;;;5187918;27;20517;-43
2021/09/15 11:00:30;;;;;;;0.70;0.50;;;18.30;99.90;;;;;;5188325;27;20469;-42
2021/09/15 11:03:25;;;;;;;0.40;0.33;;;18.40;99.90;;;;;;5182359;27;20465;-43
2021/09/15 11:05:59;;;;;;;0.50;0.50;;;18.40;99.90;;;;;;5188096;27;20502;-43
2021/09/15 11:08:41;;;;;;;0.40;0.40;;;18.40;99.90;;;;;;5186156;27;20487;-43
2021/09/15 11:11:13;;;;;;;1.50;0.57;;;18.40;99.90;;;;;;5186051;27;20536;-43
2021/09/15 11:13:58;;;;;;;0.60;0.50;;;18.30;99.90;;;;;;5186436;27;20448;-43
2021/09/15 11:16:37;;;;;;;0.50;0.30;;;18.30;99.90;;;;;;5188203;27;20470;-43
2021/09/15 11:19:09;;;;;;;1.13;0.40;;;18.30;99.90;;;;;;5187203;27;20457;-44
2021/09/15 11:21:45;;;;;;;0.57;0.57;;;18.20;99.90;;;;;;5187595;27;20463;-42
2021/09/15 11:24:21;;;;;;;0.50;0.40;;;18.20;99.90;;;;;;5186226;27;20454;-43
2021/09/15 11:26:54;;;;;;;1.03;0.60;;;18.10;99.90;;;;;;5186633;27;20449;-42
2021/09/15 11:29:50;;;;;;;0.63;0.63;;;18.00;99.90;;;;;;5187072;27;20527;-43
2021/09/15 11:32:23;;;;;;;0.57;0.50;;;17.90;99.90;;;;;;5172522;27;20544;-42
2021/09/15 11:34:55;;;;;;;0.77;0.57;;;17.90;99.90;;;;;;5186899;27;20451;-43
2021/09/15 11:37:28;;;;;;;0.87;0.80;;;17.90;99.90;;;;;;5182825;27;20449;-42
2021/09/15 11:40:00;;;;;;;1.40;0.63;;;17.80;99.90;;;;;;5187273;27;20449;-43
2021/09/15 11:42:35;;;;;;;0.80;0.80;;;17.70;99.90;;;;;;5186801;27;20474;-43
2021/09/15 11:45:16;;;;;;;0.97;0.83;;;17.80;99.90;;;;;;5187258;27;20514;-43
2021/09/15 11:47:49;;;;;;;2.93;0.93;;;17.80;99.90;;;;;;5186489;27;20454;-43
2021/09/15 11:50:22;;;;;;;0.67;0.67;;;17.80;99.90;;;;;;5187314;27;20450;-43
2021/09/15 11:52:58;;;;;;;2.03;0.90;;;17.80;99.90;;;;;;5187285;27;20431;-43
2021/09/15 11:55:31;;;;;;;0.80;0.80;;;17.70;99.90;;;;;;5187089;27;20461;-43
2021/09/15 11:58:02;;;;;;;0.93;0.80;;;17.70;99.90;;;;;;5185452;27;20521;-43
2021/09/15 12:00:42;;;;;;;0.80;0.80;;;17.70;99.90;;;;;;5186878;27;20448;-43
2021/09/15 12:03:15;;;;;;;0.77;0.67;;;17.60;99.90;;;;;;5185635;27;20538;-43
2021/09/15 12:05:47;;;;;;;0.80;0.80;;;17.50;99.90;;;;;;5186453;27;20485;-43
2021/09/15 12:08:20;;;;;;;1.03;1.00;;;17.50;99.90;;;;;;5186722;27;20510;-44
2021/09/15 12:10:54;;;;;;;1.37;0.90;;;17.40;99.90;;;;;;5186949;27;20413;-43
2021/09/15 12:13:30;;;;;;;0.80;0.80;;;17.50;99.90;;;;;;5186031;27;20441;-42
2021/09/15 12:16:02;;;;;;;0.90;0.90;;;17.50;99.90;;;;;;5182806;27;20526;-42
2021/09/15 12:18:41;;;;;;;1.33;1.13;;;17.60;99.90;;;;;;5185553;27;20482;-43
2021/09/15 12:21:18;;;;;;;1.00;0.90;;;17.50;99.90;;;;;;5186208;27;20516;-43
2021/09/15 12:23:51;;;;;;;1.20;1.10;;;17.50;99.90;;;;;;5186236;27;20473;-43
2021/09/15 12:26:29;;;;;;;1.00;0.90;;;17.50;99.90;;;;;;5185664;27;20754;-42
2021/09/15 12:29:07;;;;;;;4.40;1.30;;;17.50;99.90;;;;;;5185912;27;20405;-43
2021/09/15 12:31:43;;;;;;;1.30;1.20;;;17.40;99.90;;;;;;5183651;27;20577;-43
2021/09/15 12:34:15;;;;;;;1.30;1.20;;;17.40;99.90;;;;;;5185946;27;20410;-43
2021/09/15 12:36:46;;;;;;;1.03;0.93;;;17.30;99.90;;;;;;5184553;27;20461;-43
2021/09/15 12:39:19;;;;;;;1.17;1.07;;;17.30;99.90;;;;;;5186068;27;20527;-44
2021/09/15 12:41:56;;;;;;;2.20;1.30;;;17.30;99.90;;;;;;5185257;27;20442;-43
2021/09/15 12:44:34;;;;;;;1.30;1.20;;;17.30;99.90;;;;;;5186426;27;20548;-43
2021/09/15 12:47:07;;;;;;;2.07;1.43;;;17.30;99.90;;;;;;5185436;27;20447;-43
2021/09/15 12:49:40;;;;;;;1.70;1.57;;;17.30;99.90;;;;;;5185542;27;20466;-43
2021/09/15 12:52:14;;;;;;;1.50;1.40;;;17.20;99.90;;;;;;5174502;27;20487;-43
2021/09/15 12:54:57;;;;;;;1.90;1.60;;;17.20;99.90;;;;;;5179941;27;20543;-43
2021/09/15 12:57:29;;;;;;;2.43;2.10;;;17.10;99.90;;;;;;5185278;27;20834;-43
2021/09/15 13:00:22;;;;;;;1.40;1.30;;;17.20;99.90;;;;;;5186104;27;20828;-43
2021/09/15 13:02:57;;;;;;;1.60;1.50;;;17.10;99.90;;;;;;5184496;27;20499;-43
2021/09/15 13:05:28;;;;;;;1.70;1.60;;;17.10;99.90;;;;;;5183507;27;20461;-43
2021/09/15 13:07:59;;;;;;;1.60;1.50;;;17.00;99.90;;;;;;5184557;27;20456;-43
2021/09/15 13:10:32;;;;;;;1.57;1.30;;;17.00;99.90;;;;;;5185089;27;20510;-43
2021/09/15 13:13:03;;;;;;;1.50;1.40;;;17.00;99.90;;;;;;5185356;27;20797;-43
2021/09/15 13:15:35;;;;;;;1.80;1.50;;;17.00;99.90;;;;;;5183865;27;20457;-43
2021/09/15 13:18:06;;;;;;;1.67;1.57;;;16.90;99.90;;;;;;5185393;27;20445;-43
2021/09/15 13:20:37;;;;;;;2.70;2.10;;;17.00;99.90;;;;;;5184357;27;20545;-43
2021/09/15 13:23:08;;;;;;;1.70;1.60;;;16.90;99.90;;;;;;5184984;27;20454;-43
2021/09/15 13:25:41;;;;;;;1.70;1.47;;;16.90;99.90;;;;;;5184922;27;20443;-43
2021/09/15 13:28:12;;;;;;;1.57;1.47;;;16.90;99.90;;;;;;5184360;27;20481;-44
2021/09/15 13:30:43;;;;;;;1.70;1.60;;;16.80;99.90;;;;;;5185051;27;20454;-43